Rockland, Wisconsin
Current Conditions -  °F | °C
As of 12:15 PM on Monday 26 Jan 2015 (Local Time) from KCMY Reporting Station
Haze Haze  
Wind Chill: 24°   Ceiling: 1000
Heat Index: 24°   Visibility: 3mi
Dew Point: 21°   Wind: 0mph
Humidity: 90%   Direction: NA
Pressure: 29.77"   Gusts: NA
Location:  43.91°N, 90.92°W
Report Text: KCMY 261815Z AUTO 00000KT 3SM BR OVC010 M05/M06 A2977 RMK AO2 T10461060
Loading
Personal Weather Stations






























Interactive Weather Map New forecast layout! Learn more

10-Day Weather Forecast

Advertisements
Track Severe Weather on mobile